Terminal Aerodrome Forecast
Issued by NWS

Current Version | Previous Version | Graphics & Text | Print | Product List | Glossary On
Versions: 1 2 3 4 5 6 7 8 9 10 11 12 13 14 15 16 17
000
FTUS41 KILN 271700 RRA
TAFLUK
TAF
KLUK 271741Z 2718/2818 04005KT P6SM FEW050 BKN250
     FM280000 05003KT P6SM SCT250
     FM280400 00000KT 4SM BR SCT250
      TEMPO 2807/2811 1SM BR
     FM281200 09003KT P6SM FEW050 SCT250=

USA.gov is the U.S. government's official web portal to all federal, state and local government web resources and services.